createdAt,value
2023-05-16T00:00:58.132Z,1001.00
2023-05-16T00:06:09.062Z,1001.00
2023-05-16T00:11:01.489Z,1001.00
2023-05-16T00:16:01.393Z,1001.00
2023-05-16T00:21:01.394Z,1001.00
2023-05-16T00:26:01.274Z,1001.00
2023-05-16T00:31:01.211Z,1001.00
2023-05-16T00:36:01.132Z,1001.00
2023-05-16T00:41:01.068Z,1001.00
2023-05-16T00:46:01.104Z,1001.00
2023-05-16T00:51:00.945Z,1001.00
2023-05-16T00:56:00.899Z,1001.00
2023-05-16T01:01:00.858Z,1001.00
2023-05-16T01:06:00.748Z,1001.00
2023-05-16T01:11:00.708Z,1001.00
2023-05-16T01:16:00.623Z,1001.00
2023-05-16T01:21:00.564Z,1001.00
2023-05-16T01:26:00.482Z,1001.00
2023-05-16T01:31:01.270Z,1001.00
2023-05-16T01:36:00.352Z,1001.00
2023-05-16T01:41:00.321Z,1001.00
2023-05-16T01:46:00.195Z,1001.00
2023-05-16T01:51:00.158Z,1001.00
2023-05-16T01:56:00.094Z,1001.00
2023-05-16T02:01:00.080Z,1001.00
2023-05-16T02:06:00.004Z,1001.00
2023-05-16T02:10:59.887Z,1001.00
2023-05-16T02:15:59.827Z,1001.00
2023-05-16T02:20:59.756Z,1001.00
2023-05-16T02:25:59.681Z,1001.00
2023-05-16T02:30:59.706Z,1001.00
2023-05-16T02:35:59.536Z,1001.00
2023-05-16T02:40:59.492Z,1001.00
2023-05-16T02:45:59.448Z,1001.00
2023-05-16T02:50:59.344Z,1001.00
2023-05-16T02:55:59.290Z,1001.00
2023-05-16T03:00:59.213Z,1001.00
2023-05-16T03:05:59.141Z,1001.00
2023-05-16T03:10:59.112Z,1001.00
2023-05-16T03:15:59.055Z,1001.00
2023-05-16T03:20:58.955Z,1001.00
2023-05-16T03:25:58.888Z,1001.00
2023-05-16T03:30:58.823Z,1001.00
2023-05-16T03:35:58.745Z,1001.00
2023-05-16T03:40:58.690Z,1001.00
2023-05-16T03:45:58.679Z,1002.00
2023-05-16T03:50:58.650Z,1002.00
2023-05-16T03:55:58.520Z,1002.00
2023-05-16T04:00:58.429Z,1002.00
2023-05-16T04:05:58.357Z,1002.00
2023-05-16T04:10:58.321Z,1002.00
2023-05-16T04:16:07.778Z,1002.00
2023-05-16T04:21:00.146Z,1002.00
2023-05-16T04:26:00.096Z,1002.00
2023-05-16T04:31:00.086Z,1002.00
2023-05-16T04:35:59.956Z,1002.00
2023-05-16T04:40:59.954Z,1002.00
2023-05-16T04:45:59.887Z,1002.00
2023-05-16T04:50:59.767Z,1002.00
2023-05-16T04:55:59.703Z,1002.00
2023-05-16T05:01:01.898Z,1002.00
2023-05-16T05:05:59.572Z,1003.00
2023-05-16T05:10:59.500Z,1003.00
2023-05-16T05:15:59.438Z,1003.00
2023-05-16T05:20:59.352Z,1003.00
2023-05-16T05:25:59.328Z,1003.00
2023-05-16T05:30:59.232Z,1003.00
2023-05-16T05:35:59.160Z,1003.00
2023-05-16T05:40:59.091Z,1003.00
2023-05-16T05:45:59.067Z,1003.00
2023-05-16T05:50:58.951Z,1003.00
2023-05-16T05:55:58.909Z,1003.00
2023-05-16T06:00:58.821Z,1003.00
2023-05-16T06:05:58.804Z,1003.00
2023-05-16T06:10:58.714Z,1003.00
2023-05-16T06:15:58.633Z,1004.00
2023-05-16T06:20:58.565Z,1004.00
2023-05-16T06:25:58.499Z,1004.00
2023-05-16T06:30:58.441Z,1004.00
2023-05-16T06:35:58.385Z,1004.00
2023-05-16T06:40:58.316Z,1004.00
2023-05-16T06:45:58.290Z,1004.00
2023-05-16T06:50:58.158Z,1004.00
2023-05-16T06:55:58.132Z,1004.00
2023-05-16T07:00:58.041Z,1004.00
2023-05-16T07:05:58.024Z,1004.00
2023-05-16T07:10:57.978Z,1004.00
2023-05-16T07:15:57.845Z,1004.00
2023-05-16T07:20:57.749Z,1004.00
2023-05-16T07:25:57.715Z,1004.00
2023-05-16T07:30:57.592Z,1004.00
2023-05-16T07:36:07.933Z,1004.00
2023-05-16T07:40:58.517Z,1005.00
2023-05-16T07:45:57.527Z,1005.00
2023-05-16T07:50:57.356Z,1005.00
2023-05-16T07:55:57.301Z,1005.00
2023-05-16T08:00:57.242Z,1005.00
2023-05-16T08:05:57.181Z,1005.00
2023-05-16T08:10:57.119Z,1005.00
2023-05-16T08:15:57.055Z,1005.00
2023-05-16T08:20:56.970Z,1005.00
2023-05-16T08:25:56.910Z,1005.00
2023-05-16T08:30:56.851Z,1005.00
2023-05-16T08:35:56.756Z,1005.00
2023-05-16T08:40:56.717Z,1005.00
2023-05-16T08:45:56.635Z,1005.00
2023-05-16T08:50:56.549Z,1005.00
2023-05-16T08:55:56.511Z,1005.00
2023-05-16T09:00:56.513Z,1005.00
2023-05-16T09:05:56.368Z,1005.00
2023-05-16T09:10:56.290Z,1005.00
2023-05-16T09:15:56.257Z,1005.00
2023-05-16T09:20:56.172Z,1005.00
2023-05-16T09:25:56.110Z,1005.00
2023-05-16T09:30:56.076Z,1005.00
2023-05-16T09:35:55.978Z,1005.00
2023-05-16T09:40:55.942Z,1005.00
2023-05-16T09:45:55.937Z,1005.00
2023-05-16T09:50:55.811Z,1005.00
2023-05-16T09:55:55.766Z,1005.00
2023-05-16T10:00:55.664Z,1005.00
2023-05-16T10:05:55.655Z,1005.00
2023-05-16T10:10:55.515Z,1005.00
2023-05-16T10:15:55.480Z,1005.00
2023-05-16T10:20:55.455Z,1005.00
2023-05-16T10:25:55.335Z,1005.00
2023-05-16T10:30:55.277Z,1005.00
2023-05-16T10:35:55.179Z,1005.00
2023-05-16T10:40:55.147Z,1005.00
2023-05-16T10:45:55.111Z,1005.00
2023-05-16T10:50:54.983Z,1005.00
2023-05-16T10:55:54.908Z,1005.00
2023-05-16T11:00:55.881Z,1005.00
2023-05-16T11:05:54.800Z,1004.00
2023-05-16T11:10:54.730Z,1004.00
2023-05-16T11:15:54.679Z,1004.00
2023-05-16T11:20:54.596Z,1004.00
2023-05-16T11:25:54.559Z,1004.00
2023-05-16T11:30:54.488Z,1004.00
2023-05-16T11:36:01.370Z,1004.00
2023-05-16T11:40:55.326Z,1004.00
2023-05-16T11:45:54.413Z,1004.00
2023-05-16T11:50:54.236Z,1004.00
2023-05-16T11:55:55.847Z,1004.00
2023-05-16T12:00:55.004Z,1004.00
2023-05-16T12:05:54.170Z,1004.00
2023-05-16T12:10:53.935Z,1004.00
2023-05-16T12:15:53.876Z,1004.00
2023-05-16T12:20:53.813Z,1004.00
2023-05-16T12:25:53.724Z,1004.00
2023-05-16T12:30:53.694Z,1004.00
2023-05-16T12:35:53.602Z,1004.00
2023-05-16T12:40:53.818Z,1004.00
2023-05-16T12:45:53.508Z,1004.00
2023-05-16T12:50:53.490Z,1004.00
2023-05-16T12:55:53.330Z,1005.00
2023-05-16T13:00:53.354Z,1004.00
2023-05-16T13:05:53.190Z,1004.00
2023-05-16T13:10:53.163Z,1005.00
2023-05-16T13:15:53.092Z,1005.00
2023-05-16T13:20:53.038Z,1005.00
2023-05-16T13:25:53.048Z,1005.00
2023-05-16T13:30:52.894Z,1005.00
2023-05-16T13:35:53.004Z,1005.00
2023-05-16T13:40:53.537Z,1005.00
2023-05-16T13:45:52.703Z,1005.00
2023-05-16T13:50:52.621Z,1005.00
2023-05-16T13:55:52.539Z,1005.00
2023-05-16T14:00:52.954Z,1005.00
2023-05-16T14:05:52.431Z,1005.00
2023-05-16T14:10:52.520Z,1005.00
2023-05-16T14:15:52.365Z,1005.00
2023-05-16T14:20:52.237Z,1005.00
2023-05-16T14:25:52.130Z,1005.00
2023-05-16T14:30:52.071Z,1005.00
2023-05-16T14:35:52.030Z,1005.00
2023-05-16T14:40:51.985Z,1005.00
2023-05-16T14:45:51.904Z,1005.00
2023-05-16T14:50:51.956Z,1005.00
2023-05-16T14:55:51.749Z,1005.00
2023-05-16T15:00:51.738Z,1005.00
2023-05-16T15:05:51.623Z,1005.00
2023-05-16T15:10:51.550Z,1005.00
2023-05-16T15:15:51.539Z,1005.00
2023-05-16T15:20:51.396Z,1005.00
2023-05-16T15:25:51.323Z,1005.00
2023-05-16T15:30:51.294Z,1005.00
2023-05-16T15:35:51.250Z,1005.00
2023-05-16T15:40:58.096Z,1005.00
2023-05-16T15:45:52.116Z,1005.00
2023-05-16T15:50:51.012Z,1005.00
2023-05-16T15:55:50.926Z,1005.00
2023-05-16T16:00:50.904Z,1005.00
2023-05-16T16:05:50.815Z,1005.00
2023-05-16T16:10:50.740Z,1005.00
2023-05-16T16:15:50.744Z,1005.00
2023-05-16T16:20:50.612Z,1005.00
2023-05-16T16:25:50.601Z,1005.00
2023-05-16T16:30:50.586Z,1005.00
2023-05-16T16:35:50.425Z,1005.00
2023-05-16T16:40:50.374Z,1005.00
2023-05-16T16:45:50.295Z,1005.00
2023-05-16T16:50:50.482Z,1005.00
2023-05-16T16:55:50.151Z,1005.00
2023-05-16T17:00:50.124Z,1005.00
2023-05-16T17:05:49.996Z,1005.00
2023-05-16T17:10:49.929Z,1005.00
2023-05-16T17:15:49.875Z,1005.00
2023-05-16T17:20:49.790Z,1005.00
2023-05-16T17:25:49.777Z,1005.00
2023-05-16T17:30:49.675Z,1005.00
2023-05-16T17:35:49.743Z,1005.00
2023-05-16T17:40:49.632Z,1005.00
2023-05-16T17:45:49.473Z,1005.00
2023-05-16T17:50:49.424Z,1006.00
2023-05-16T17:55:50.174Z,1006.00
2023-05-16T18:00:49.633Z,1006.00
2023-05-16T18:05:49.256Z,1006.00
2023-05-16T18:10:52.017Z,1006.00
2023-05-16T18:15:49.099Z,1006.00
2023-05-16T18:20:49.112Z,1006.00
2023-05-16T18:25:49.060Z,1006.00
2023-05-16T18:30:48.972Z,1006.00
2023-05-16T18:35:49.470Z,1006.00
2023-05-16T18:40:48.815Z,1006.00
2023-05-16T18:45:48.884Z,1006.00
2023-05-16T18:50:48.615Z,1006.00
2023-05-16T18:55:48.703Z,1006.00
2023-05-16T19:00:48.493Z,1006.00
2023-05-16T19:05:48.629Z,1006.00
2023-05-16T19:10:48.332Z,1006.00
2023-05-16T19:15:48.310Z,1006.00
2023-05-16T19:20:48.267Z,1006.00
2023-05-16T19:25:48.186Z,1006.00
2023-05-16T19:30:48.119Z,1007.00
2023-05-16T19:35:48.109Z,1007.00
2023-05-16T19:40:47.933Z,1007.00
2023-05-16T19:45:47.918Z,1007.00
2023-05-16T19:50:47.846Z,1007.00
2023-05-16T19:55:47.792Z,1007.00
2023-05-16T20:00:47.654Z,1007.00
2023-05-16T20:05:47.641Z,1007.00
2023-05-16T20:10:47.510Z,1007.00
2023-05-16T20:15:47.502Z,1007.00
2023-05-16T20:20:47.399Z,1007.00
2023-05-16T20:25:47.422Z,1007.00
2023-05-16T20:30:47.286Z,1007.00
2023-05-16T20:35:47.285Z,1007.00
2023-05-16T20:40:47.153Z,1007.00
2023-05-16T20:45:47.088Z,1007.00
2023-05-16T20:50:47.016Z,1007.00
2023-05-16T20:55:46.996Z,1007.00
2023-05-16T21:00:46.894Z,1007.00
2023-05-16T21:05:46.899Z,1007.00
2023-05-16T21:10:46.752Z,1008.00
2023-05-16T21:15:46.684Z,1007.00
2023-05-16T21:20:46.741Z,1007.00
2023-05-16T21:25:46.597Z,1008.00
2023-05-16T21:30:46.513Z,1008.00
2023-05-16T21:35:46.576Z,1008.00
2023-05-16T21:40:46.359Z,1008.00
2023-05-16T21:45:46.321Z,1008.00
2023-05-16T21:50:46.340Z,1008.00
2023-05-16T21:55:46.160Z,1008.00
2023-05-16T22:00:46.240Z,1008.00
2023-05-16T22:05:46.121Z,1008.00
2023-05-16T22:10:46.050Z,1008.00
2023-05-16T22:15:52.112Z,1008.00
2023-05-16T22:20:46.818Z,1008.00
2023-05-16T22:25:45.782Z,1008.00
2023-05-16T22:30:45.708Z,1008.00
2023-05-16T22:35:45.689Z,1008.00
2023-05-16T22:40:45.627Z,1008.00
2023-05-16T22:45:45.562Z,1008.00
2023-05-16T22:50:45.438Z,1008.00
2023-05-16T22:55:45.421Z,1008.00
2023-05-16T23:00:45.345Z,1008.00
2023-05-16T23:05:45.232Z,1008.00
2023-05-16T23:10:45.190Z,1008.00
2023-05-16T23:15:45.142Z,1008.00
2023-05-16T23:20:45.727Z,1008.00
2023-05-16T23:25:44.986Z,1008.00
2023-05-16T23:30:44.970Z,1008.00
2023-05-16T23:35:44.903Z,1008.00
2023-05-16T23:40:44.769Z,1008.00
2023-05-16T23:45:44.712Z,1008.00
2023-05-16T23:50:44.670Z,1008.00
2023-05-16T23:55:44.574Z,1008.00
